Terminal Aerodrome Forecast
Issued by NWS

Home | Current Version | Previous Version | Graphics & Text | Print | Product List | Glossary On
Versions: 1 2 3 4 5 6 7 8 9 10 11 12 13 14 15 16 17 18 19 20 21
042
FTUS43 KABR 120727 AAA
TAFATY
TAF AMD
KATY 120727Z 1207/1306 35007KT P6SM BKN025
     FM121900 34015KT P6SM BKN200
     FM130100 VRB03KT P6SM BKN200=

USA.gov is the U.S. government's official web portal to all federal, state and local government web resources and services.